sensor_id;sensor_type;location;lat;lon;timestamp;pressure;altitude;pressure_sealevel;temperature;humidity
61554;BME280;47425;51.976;5.326;2023-03-13T00:00:22;100038.13;;;16.63;44.92
61554;BME280;47425;51.976;5.326;2023-03-13T00:02:49;100038.81;;;16.50;45.06
61554;BME280;47425;51.976;5.326;2023-03-13T00:05:15;100030.16;;;16.48;45.24
61554;BME280;47425;51.976;5.326;2023-03-13T00:07:42;100030.84;;;16.52;45.26
61554;BME280;47425;51.976;5.326;2023-03-13T00:10:10;100018.38;;;16.54;45.10
61554;BME280;47425;51.976;5.326;2023-03-13T00:12:37;100013.91;;;16.54;45.24
61554;BME280;47425;51.976;5.326;2023-03-13T00:15:04;100016.50;;;16.56;45.30
61554;BME280;47425;51.976;5.326;2023-03-13T00:17:31;100009.75;;;16.50;45.39
61554;BME280;47425;51.976;5.326;2023-03-13T00:19:59;100002.59;;;16.52;45.56
61554;BME280;47425;51.976;5.326;2023-03-13T00:22:25;100000.69;;;16.54;45.50
61554;BME280;47425;51.976;5.326;2023-03-13T00:24:52;99991.94;;;16.54;45.37
61554;BME280;47425;51.976;5.326;2023-03-13T00:27:19;99981.25;;;16.55;45.45
61554;BME280;47425;51.976;5.326;2023-03-13T00:29:47;99974.38;;;16.53;45.53
61554;BME280;47425;51.976;5.326;2023-03-13T00:32:14;99962.84;;;16.54;45.68
61554;BME280;47425;51.976;5.326;2023-03-13T00:34:41;99961.06;;;16.54;45.65
61554;BME280;47425;51.976;5.326;2023-03-13T00:37:09;99963.69;;;16.54;45.75
61554;BME280;47425;51.976;5.326;2023-03-13T00:39:35;99947.19;;;16.51;45.68
61554;BME280;47425;51.976;5.326;2023-03-13T00:42:01;99940.19;;;16.50;46.04
61554;BME280;47425;51.976;5.326;2023-03-13T00:44:30;99938.31;;;16.52;45.97
61554;BME280;47425;51.976;5.326;2023-03-13T00:46:58;99928.59;;;16.52;45.86
61554;BME280;47425;51.976;5.326;2023-03-13T00:49:24;99917.00;;;16.55;45.89
61554;BME280;47425;51.976;5.326;2023-03-13T00:51:50;99912.75;;;16.52;46.07
61554;BME280;47425;51.976;5.326;2023-03-13T00:54:18;99908.97;;;16.56;46.08
61554;BME280;47425;51.976;5.326;2023-03-13T00:56:44;99888.84;;;16.54;46.22
61554;BME280;47425;51.976;5.326;2023-03-13T00:59:11;99889.88;;;16.51;46.12
61554;BME280;47425;51.976;5.326;2023-03-13T01:01:39;99887.25;;;16.51;46.25
61554;BME280;47425;51.976;5.326;2023-03-13T01:04:09;99874.69;;;16.55;46.14
61554;BME280;47425;51.976;5.326;2023-03-13T01:06:37;99872.25;;;16.52;46.50
61554;BME280;47425;51.976;5.326;2023-03-13T01:09:05;99867.13;;;16.49;46.62
61554;BME280;47425;51.976;5.326;2023-03-13T01:11:34;99864.31;;;16.52;46.51
61554;BME280;47425;51.976;5.326;2023-03-13T01:14:01;99859.09;;;16.50;46.87
61554;BME280;47425;51.976;5.326;2023-03-13T01:16:28;99851.28;;;16.49;46.65
61554;BME280;47425;51.976;5.326;2023-03-13T01:18:56;99839.88;;;16.48;46.99
61554;BME280;47425;51.976;5.326;2023-03-13T01:21:26;99842.41;;;16.50;46.98
61554;BME280;47425;51.976;5.326;2023-03-13T01:23:54;99835.41;;;16.49;46.79
61554;BME280;47425;51.976;5.326;2023-03-13T01:26:21;99829.09;;;16.51;46.90
61554;BME280;47425;51.976;5.326;2023-03-13T01:28:48;99831.94;;;16.48;46.97
61554;BME280;47425;51.976;5.326;2023-03-13T01:31:17;99822.03;;;16.52;46.78
61554;BME280;47425;51.976;5.326;2023-03-13T01:33:44;99809.88;;;16.49;46.94
61554;BME280;47425;51.976;5.326;2023-03-13T01:36:11;99801.06;;;16.49;47.13
61554;BME280;47425;51.976;5.326;2023-03-13T01:38:40;99798.31;;;16.50;46.94
61554;BME280;47425;51.976;5.326;2023-03-13T01:41:07;99788.72;;;16.49;47.17
61554;BME280;47425;51.976;5.326;2023-03-13T01:43:34;99787.69;;;16.52;47.27
61554;BME280;47425;51.976;5.326;2023-03-13T01:46:03;99775.41;;;16.51;47.21
61554;BME280;47425;51.976;5.326;2023-03-13T01:48:48;99770.97;;;16.51;47.09
61554;BME280;47425;51.976;5.326;2023-03-13T01:51:19;99770.03;;;16.52;47.05
61554;BME280;47425;51.976;5.326;2023-03-13T01:53:50;99756.69;;;16.54;47.21
61554;BME280;47425;51.976;5.326;2023-03-13T01:56:21;99756.69;;;16.54;47.19
61554;BME280;47425;51.976;5.326;2023-03-13T01:58:53;99760.19;;;16.54;47.19
61554;BME280;47425;51.976;5.326;2023-03-13T02:01:22;99754.06;;;16.54;47.04
61554;BME280;47425;51.976;5.326;2023-03-13T02:03:49;99739.72;;;16.58;47.14
61554;BME280;47425;51.976;5.326;2023-03-13T02:06:19;99731.88;;;16.56;47.30
61554;BME280;47425;51.976;5.326;2023-03-13T02:08:47;99724.25;;;16.52;47.40
61554;BME280;47425;51.976;5.326;2023-03-13T02:11:21;99721.50;;;16.53;47.13
61554;BME280;47425;51.976;5.326;2023-03-13T02:13:50;99719.03;;;16.50;47.29
61554;BME280;47425;51.976;5.326;2023-03-13T02:16:17;99692.59;;;16.50;47.21
61554;BME280;47425;51.976;5.326;2023-03-13T02:18:47;99688.94;;;16.53;47.40
61554;BME280;47425;51.976;5.326;2023-03-13T02:21:16;99678.47;;;16.51;47.28
61554;BME280;47425;51.976;5.326;2023-03-13T02:23:49;99677.53;;;16.52;47.62
61554;BME280;47425;51.976;5.326;2023-03-13T02:26:19;99673.38;;;16.48;47.35
61554;BME280;47425;51.976;5.326;2023-03-13T02:28:46;99668.00;;;16.50;47.65
61554;BME280;47425;51.976;5.326;2023-03-13T02:31:15;99665.56;;;16.47;47.69
61554;BME280;47425;51.976;5.326;2023-03-13T02:33:42;99655.72;;;16.49;47.83
61554;BME280;47425;51.976;5.326;2023-03-13T02:36:11;99659.50;;;16.44;47.72
61554;BME280;47425;51.976;5.326;2023-03-13T02:38:43;99658.56;;;16.46;47.77
61554;BME280;47425;51.976;5.326;2023-03-13T02:41:12;99658.56;;;16.46;47.80
61554;BME280;47425;51.976;5.326;2023-03-13T02:43:40;99660.16;;;16.48;47.78
61554;BME280;47425;51.976;5.326;2023-03-13T02:46:09;99655.91;;;16.46;48.12
61554;BME280;47425;51.976;5.326;2023-03-13T02:48:40;99638.56;;;16.41;47.86
61554;BME280;47425;51.976;5.326;2023-03-13T02:51:10;99642.91;;;16.42;48.25
61554;BME280;47425;51.976;5.326;2023-03-13T02:53:40;99638.47;;;16.43;48.41
61554;BME280;47425;51.976;5.326;2023-03-13T02:56:07;99646.41;;;16.43;48.20
61554;BME280;47425;51.976;5.326;2023-03-13T02:58:36;99646.50;;;16.41;48.77
61554;BME280;47425;51.976;5.326;2023-03-13T03:01:05;99642.16;;;16.40;48.65
61554;BME280;47425;51.976;5.326;2023-03-13T03:03:36;99645.25;;;16.47;48.56
61554;BME280;47425;51.976;5.326;2023-03-13T03:06:03;99653.38;;;16.44;48.66
61554;BME280;47425;51.976;5.326;2023-03-13T03:08:30;99639.22;;;16.45;48.88
61554;BME280;47425;51.976;5.326;2023-03-13T03:10:57;99649.50;;;16.50;48.44
61554;BME280;47425;51.976;5.326;2023-03-13T03:13:24;99646.84;;;16.50;48.53
61554;BME280;47425;51.976;5.326;2023-03-13T03:15:51;99635.34;;;16.51;48.54
61554;BME280;47425;51.976;5.326;2023-03-13T03:18:19;99637.03;;;16.52;48.47
61554;BME280;47425;51.976;5.326;2023-03-13T03:20:46;99644.09;;;16.51;48.63
61554;BME280;47425;51.976;5.326;2023-03-13T03:23:13;99632.88;;;16.48;48.84
61554;BME280;47425;51.976;5.326;2023-03-13T03:25:39;99632.88;;;16.48;48.86
61554;BME280;47425;51.976;5.326;2023-03-13T03:28:06;99626.47;;;16.52;49.07
61554;BME280;47425;51.976;5.326;2023-03-13T03:30:33;99643.97;;;16.40;49.13
61554;BME280;47425;51.976;5.326;2023-03-13T03:33:01;99626.09;;;16.43;49.06
61554;BME280;47425;51.976;5.326;2023-03-13T03:35:29;99625.72;;;16.50;49.07
61554;BME280;47425;51.976;5.326;2023-03-13T03:37:56;99625.91;;;16.47;49.06
61554;BME280;47425;51.976;5.326;2023-03-13T03:40:23;99619.97;;;16.43;49.39
61554;BME280;47425;51.976;5.326;2023-03-13T03:42:49;99618.38;;;16.40;49.23
61554;BME280;47425;51.976;5.326;2023-03-13T03:45:16;99624.50;;;16.41;49.45
61554;BME280;47425;51.976;5.326;2023-03-13T03:47:44;99620.72;;;16.45;49.32
61554;BME280;47425;51.976;5.326;2023-03-13T03:50:10;99617.78;;;16.50;49.32
61554;BME280;47425;51.976;5.326;2023-03-13T03:52:47;99617.56;;;16.53;49.13
61554;BME280;47425;51.976;5.326;2023-03-13T03:55:18;99612.09;;;16.56;49.21
61554;BME280;47425;51.976;5.326;2023-03-13T03:57:46;99617.41;;;16.56;49.31
61554;BME280;47425;51.976;5.326;2023-03-13T04:00:20;99608.81;;;16.52;49.42
61554;BME280;47425;51.976;5.326;2023-03-13T04:02:50;99609.09;;;16.48;49.72
61554;BME280;47425;51.976;5.326;2023-03-13T04:05:17;99608.03;;;16.50;49.34
61554;BME280;47425;51.976;5.326;2023-03-13T04:07:44;99604.78;;;16.47;49.88
61554;BME280;47425;51.976;5.326;2023-03-13T04:10:13;99598.63;;;16.46;50.02
61554;BME280;47425;51.976;5.326;2023-03-13T04:12:42;99596.75;;;16.48;49.77
61554;BME280;47425;51.976;5.326;2023-03-13T04:15:11;99599.28;;;16.50;49.66
61554;BME280;47425;51.976;5.326;2023-03-13T04:17:38;99589.47;;;16.52;49.83
61554;BME280;47425;51.976;5.326;2023-03-13T04:20:05;99595.50;;;16.54;49.79
61554;BME280;47425;51.976;5.326;2023-03-13T04:22:32;99592.19;;;16.50;50.01
61554;BME280;47425;51.976;5.326;2023-03-13T04:25:01;99585.03;;;16.52;49.76
61554;BME280;47425;51.976;5.326;2023-03-13T04:27:31;99579.63;;;16.54;49.82
61554;BME280;47425;51.976;5.326;2023-03-13T04:29:57;99585.56;;;16.57;49.71
61554;BME280;47425;51.976;5.326;2023-03-13T04:32:24;99562.63;;;16.58;49.98
61554;BME280;47425;51.976;5.326;2023-03-13T04:35:02;99568.00;;;16.56;50.10
61554;BME280;47425;51.976;5.326;2023-03-13T04:37:40;99563.56;;;16.57;49.87
61554;BME280;47425;51.976;5.326;2023-03-13T04:40:29;99550.44;;;16.55;50.19
61554;BME280;47425;51.976;5.326;2023-03-13T04:43:16;99555.75;;;16.55;50.21
61554;BME280;47425;51.976;5.326;2023-03-13T04:45:53;99563.56;;;16.57;50.40
61554;BME280;47425;51.976;5.326;2023-03-13T04:48:34;99551.00;;;16.60;50.35
61554;BME280;47425;51.976;5.326;2023-03-13T04:51:19;99545.72;;;16.60;50.96
61554;BME280;47425;51.976;5.326;2023-03-13T04:53:57;99543.88;;;16.48;50.88
61554;BME280;47425;51.976;5.326;2023-03-13T04:56:39;99537.00;;;16.46;50.57
61554;BME280;47425;51.976;5.326;2023-03-13T04:59:44;99565.03;;;16.48;50.81
61554;BME280;47425;51.976;5.326;2023-03-13T05:02:34;99536.69;;;16.50;50.76
61554;BME280;47425;51.976;5.326;2023-03-13T05:05:19;99536.63;;;16.52;51.08
61554;BME280;47425;51.976;5.326;2023-03-13T05:08:01;99537.94;;;16.44;50.75
61554;BME280;47425;51.976;5.326;2023-03-13T05:10:53;99546.94;;;16.42;51.14
61554;BME280;47425;51.976;5.326;2023-03-13T05:13:34;99534.47;;;16.44;51.34
61554;BME280;47425;51.976;5.326;2023-03-13T05:16:29;99527.28;;;16.46;51.18
61554;BME280;47425;51.976;5.326;2023-03-13T05:19:11;99529.28;;;16.42;51.35
61554;BME280;47425;51.976;5.326;2023-03-13T05:22:05;99544.00;;;16.47;51.37
61554;BME280;47425;51.976;5.326;2023-03-13T05:24:46;99533.53;;;16.45;51.05
61554;BME280;47425;51.976;5.326;2023-03-13T05:27:34;99517.22;;;16.38;51.76
61554;BME280;47425;51.976;5.326;2023-03-13T05:30:37;99534.41;;;16.31;51.70
61554;BME280;47425;51.976;5.326;2023-03-13T05:33:26;99534.13;;;16.36;52.00
61554;BME280;47425;51.976;5.326;2023-03-13T05:36:25;99542.34;;;16.31;51.30
61554;BME280;47425;51.976;5.326;2023-03-13T05:39:19;99529.59;;;16.38;51.47
61554;BME280;47425;51.976;5.326;2023-03-13T05:42:10;99531.03;;;16.29;51.99
61554;BME280;47425;51.976;5.326;2023-03-13T05:44:58;99533.25;;;16.22;52.63
61554;BME280;47425;51.976;5.326;2023-03-13T05:47:49;99525.41;;;16.21;52.88
61554;BME280;47425;51.976;5.326;2023-03-13T05:50:33;99529.34;;;16.28;52.96
61554;BME280;47425;51.976;5.326;2023-03-13T05:53:18;99519.63;;;16.28;53.54
61554;BME280;47425;51.976;5.326;2023-03-13T05:56:08;99527.16;;;16.35;53.37
61554;BME280;47425;51.976;5.326;2023-03-13T05:58:56;99514.16;;;16.44;53.29
61554;BME280;47425;51.976;5.326;2023-03-13T06:01:42;99510.25;;;16.50;53.29
61554;BME280;47425;51.976;5.326;2023-03-13T06:04:16;99512.63;;;16.55;53.25
61554;BME280;47425;51.976;5.326;2023-03-13T06:06:46;99512.41;;;16.58;53.44
61554;BME280;47425;51.976;5.326;2023-03-13T06:09:14;99500.13;;;16.57;53.43
61554;BME280;47425;51.976;5.326;2023-03-13T06:11:40;99507.13;;;16.58;53.50
61554;BME280;47425;51.976;5.326;2023-03-13T06:14:07;99490.31;;;16.59;53.59
61554;BME280;47425;51.976;5.326;2023-03-13T06:17:01;99497.19;;;16.61;53.67
61554;BME280;47425;51.976;5.326;2023-03-13T06:19:29;99492.44;;;16.67;53.56
61554;BME280;47425;51.976;5.326;2023-03-13T06:21:57;99496.25;;;16.63;53.26
61554;BME280;47425;51.976;5.326;2023-03-13T06:24:23;99490.44;;;16.57;53.78
61554;BME280;47425;51.976;5.326;2023-03-13T06:26:51;99486.19;;;16.55;53.65
61554;BME280;47425;51.976;5.326;2023-03-13T06:29:17;99489.78;;;16.54;53.66
61554;BME280;47425;51.976;5.326;2023-03-13T06:31:43;99490.22;;;16.60;53.62
61554;BME280;47425;51.976;5.326;2023-03-13T06:34:11;99492.97;;;16.59;53.90
61554;BME280;47425;51.976;5.326;2023-03-13T06:36:38;99497.19;;;16.61;53.73
61554;BME280;47425;51.976;5.326;2023-03-13T06:39:06;99485.03;;;16.59;53.55
61554;BME280;47425;51.976;5.326;2023-03-13T06:41:33;99490.88;;;16.64;53.49
61554;BME280;47425;51.976;5.326;2023-03-13T06:44:00;99493.28;;;16.67;53.36
61554;BME280;47425;51.976;5.326;2023-03-13T06:46:27;99506.63;;;16.66;53.51
61554;BME280;47425;51.976;5.326;2023-03-13T06:48:54;99501.44;;;16.64;53.33
61554;BME280;47425;51.976;5.326;2023-03-13T06:51:20;99499.09;;;16.59;53.50
61554;BME280;47425;51.976;5.326;2023-03-13T06:53:48;99503.84;;;16.67;53.42
61554;BME280;47425;51.976;5.326;2023-03-13T06:56:17;99498.34;;;16.70;53.02
61554;BME280;47425;51.976;5.326;2023-03-13T06:58:46;99502.06;;;16.68;52.97
61554;BME280;47425;51.976;5.326;2023-03-13T07:01:14;99500.16;;;16.70;52.91
61554;BME280;47425;51.976;5.326;2023-03-13T07:03:40;99497.41;;;16.58;53.16
61554;BME280;47425;51.976;5.326;2023-03-13T07:06:07;99492.13;;;16.58;53.41
61554;BME280;47425;51.976;5.326;2023-03-13T07:08:54;99496.25;;;16.63;53.24
61554;BME280;47425;51.976;5.326;2023-03-13T07:11:23;99501.44;;;16.64;53.05
61554;BME280;47425;51.976;5.326;2023-03-13T07:13:52;99487.13;;;16.54;53.24
61554;BME280;47425;51.976;5.326;2023-03-13T07:16:19;99501.72;;;16.47;53.77
61554;BME280;47425;51.976;5.326;2023-03-13T07:18:45;99498.84;;;16.50;53.27
61554;BME280;47425;51.976;5.326;2023-03-13T07:21:13;99499.31;;;16.56;53.23
61554;BME280;47425;51.976;5.326;2023-03-13T07:23:40;99509.47;;;16.63;53.33
61554;BME280;47425;51.976;5.326;2023-03-13T07:26:07;99497.84;;;16.65;52.82
61554;BME280;47425;51.976;5.326;2023-03-13T07:28:36;99499.19;;;16.58;53.27
61554;BME280;47425;51.976;5.326;2023-03-13T07:31:04;99500.50;;;16.65;52.94
61554;BME280;47425;51.976;5.326;2023-03-13T07:33:31;99506.28;;;16.70;53.11
61554;BME280;47425;51.976;5.326;2023-03-13T07:35:57;99507.34;;;16.68;52.93
61554;BME280;47425;51.976;5.326;2023-03-13T07:38:26;99508.94;;;16.70;53.11
61554;BME280;47425;51.976;5.326;2023-03-13T07:40:53;99507.44;;;16.66;53.19
61554;BME280;47425;51.976;5.326;2023-03-13T07:43:20;99501.22;;;16.67;53.22
61554;BME280;47425;51.976;5.326;2023-03-13T07:45:51;99506.06;;;16.60;53.41
61554;BME280;47425;51.976;5.326;2023-03-13T07:48:19;99513.88;;;16.62;53.17
61554;BME280;47425;51.976;5.326;2023-03-13T07:50:46;99517.84;;;16.69;52.90
61554;BME280;47425;51.976;5.326;2023-03-13T07:53:13;99517.19;;;16.66;53.18
61554;BME280;47425;51.976;5.326;2023-03-13T07:55:53;99514.66;;;16.64;53.21
61554;BME280;47425;51.976;5.326;2023-03-13T07:58:20;99509.03;;;16.69;53.27
61554;BME280;47425;51.976;5.326;2023-03-13T08:00:47;99505.22;;;16.60;53.29
61554;BME280;47425;51.976;5.326;2023-03-13T08:03:15;99514.66;;;16.64;53.16
61554;BME280;47425;51.976;5.326;2023-03-13T08:05:42;99502.06;;;16.68;53.34
61554;BME280;47425;51.976;5.326;2023-03-13T08:08:09;99503.56;;;16.72;53.00
61554;BME280;47425;51.976;5.326;2023-03-13T08:10:35;99510.97;;;16.67;53.22
61554;BME280;47425;51.976;5.326;2023-03-13T08:13:02;99500.94;;;16.72;52.92
61554;BME280;47425;51.976;5.326;2023-03-13T08:15:29;99498.91;;;16.75;53.36
61554;BME280;47425;51.976;5.326;2023-03-13T08:17:56;99501.25;;;16.80;52.90
61554;BME280;47425;51.976;5.326;2023-03-13T08:20:24;99493.19;;;16.69;53.04
61554;BME280;47425;51.976;5.326;2023-03-13T08:23:10;99500.59;;;16.76;52.98
61554;BME280;47425;51.976;5.326;2023-03-13T08:25:38;99484.41;;;16.81;52.87
61554;BME280;47425;51.976;5.326;2023-03-13T08:28:04;99486.97;;;16.83;53.36
61554;BME280;47425;51.976;5.326;2023-03-13T08:30:31;99498.78;;;16.77;53.01
61554;BME280;47425;51.976;5.326;2023-03-13T08:32:58;99488.03;;;16.80;52.92
61554;BME280;47425;51.976;5.326;2023-03-13T08:35:27;99490.34;;;16.85;52.73
61554;BME280;47425;51.976;5.326;2023-03-13T08:37:53;99488.28;;;16.90;52.50
61554;BME280;47425;51.976;5.326;2023-03-13T08:40:21;99469.53;;;16.93;52.60
61554;BME280;47425;51.976;5.326;2023-03-13T08:42:47;99482.47;;;16.98;52.70
61554;BME280;47425;51.976;5.326;2023-03-13T08:45:13;99474.00;;;16.92;52.59
61554;BME280;47425;51.976;5.326;2023-03-13T08:47:40;99452.09;;;16.90;52.79
61554;BME280;47425;51.976;5.326;2023-03-13T08:50:08;99459.38;;;17.00;52.57
61554;BME280;47425;51.976;5.326;2023-03-13T08:52:36;99438.22;;;17.00;52.28
61554;BME280;47425;51.976;5.326;2023-03-13T08:55:02;99437.16;;;17.02;52.46
61554;BME280;47425;51.976;5.326;2023-03-13T08:57:29;99434.75;;;16.99;52.40
61554;BME280;47425;51.976;5.326;2023-03-13T08:59:56;99442.34;;;17.04;52.37
61554;BME280;47425;51.976;5.326;2023-03-13T09:02:23;99439.41;;;16.96;52.64
61554;BME280;47425;51.976;5.326;2023-03-13T09:04:50;99428.94;;;16.94;52.53
61554;BME280;47425;51.976;5.326;2023-03-13T09:07:17;99443.19;;;16.91;52.63
61554;BME280;47425;51.976;5.326;2023-03-13T09:09:44;99439.50;;;16.94;52.39
61554;BME280;47425;51.976;5.326;2023-03-13T09:12:11;99430.63;;;16.95;52.46
61554;BME280;47425;51.976;5.326;2023-03-13T09:14:37;99433.69;;;17.02;52.13
61554;BME280;47425;51.976;5.326;2023-03-13T09:17:05;99427.13;;;17.07;52.24
61554;BME280;47425;51.976;5.326;2023-03-13T09:19:32;99417.59;;;17.05;52.23
61554;BME280;47425;51.976;5.326;2023-03-13T09:21:58;99412.84;;;16.97;52.19
61554;BME280;47425;51.976;5.326;2023-03-13T09:24:26;99402.16;;;16.99;52.53
61554;BME280;47425;51.976;5.326;2023-03-13T09:26:54;99403.22;;;16.96;52.45
61554;BME280;47425;51.976;5.326;2023-03-13T09:29:20;99402.66;;;17.04;52.30
61554;BME280;47425;51.976;5.326;2023-03-13T09:31:47;99396.84;;;17.11;52.10
61554;BME280;47425;51.976;5.326;2023-03-13T09:34:14;99394.31;;;17.10;52.07
61554;BME280;47425;51.976;5.326;2023-03-13T09:36:41;99387.22;;;17.10;52.06
61554;BME280;47425;51.976;5.326;2023-03-13T09:39:07;99398.09;;;17.19;51.93
61554;BME280;47425;51.976;5.326;2023-03-13T09:41:37;99385.63;;;17.21;51.62
61554;BME280;47425;51.976;5.326;2023-03-13T09:44:07;99387.31;;;17.22;51.71
61554;BME280;47425;51.976;5.326;2023-03-13T09:46:37;99394.19;;;17.24;51.76
61554;BME280;47425;51.976;5.326;2023-03-13T09:49:08;99399.88;;;17.31;51.56
61554;BME280;47425;51.976;5.326;2023-03-13T09:51:39;99387.13;;;17.36;51.13
61554;BME280;47425;51.976;5.326;2023-03-13T09:54:07;99379.59;;;17.43;51.17
61554;BME280;47425;51.976;5.326;2023-03-13T09:56:39;99378.53;;;17.45;51.32
61554;BME280;47425;51.976;5.326;2023-03-13T09:59:12;99379.41;;;17.46;51.04
61554;BME280;47425;51.976;5.326;2023-03-13T10:01:43;99366.38;;;17.43;51.24
61554;BME280;47425;51.976;5.326;2023-03-13T10:04:12;99362.59;;;17.34;51.49
61554;BME280;47425;51.976;5.326;2023-03-13T10:06:42;99348.47;;;17.22;51.42
61554;BME280;47425;51.976;5.326;2023-03-13T10:09:15;99339.56;;;17.23;51.40
61554;BME280;47425;51.976;5.326;2023-03-13T10:11:43;99358.16;;;17.35;51.48
61554;BME280;47425;51.976;5.326;2023-03-13T10:14:13;99349.66;;;17.42;51.09
61554;BME280;47425;51.976;5.326;2023-03-13T10:16:44;99356.66;;;17.43;51.04
61554;BME280;47425;51.976;5.326;2023-03-13T10:19:16;99340.31;;;17.50;50.88
61554;BME280;47425;51.976;5.326;2023-03-13T10:21:43;99346.47;;;17.50;50.67
61554;BME280;47425;51.976;5.326;2023-03-13T10:24:13;99349.81;;;17.52;50.82
61554;BME280;47425;51.976;5.326;2023-03-13T10:27:06;99359.22;;;17.56;50.49
61554;BME280;47425;51.976;5.326;2023-03-13T10:29:35;99338.81;;;17.58;50.64
61554;BME280;47425;51.976;5.326;2023-03-13T10:32:04;99335.19;;;17.59;50.57
61554;BME280;47425;51.976;5.326;2023-03-13T10:34:44;99347.69;;;17.57;50.58
61554;BME280;47425;51.976;5.326;2023-03-13T10:37:11;99342.78;;;17.64;50.47
61554;BME280;47425;51.976;5.326;2023-03-13T10:39:39;99356.25;;;17.61;50.61
61554;BME280;47425;51.976;5.326;2023-03-13T10:42:10;99340.50;;;17.59;50.38
61554;BME280;47425;51.976;5.326;2023-03-13T10:44:39;99332.56;;;17.59;50.52
61554;BME280;47425;51.976;5.326;2023-03-13T10:47:10;99358.06;;;17.60;50.24
61554;BME280;47425;51.976;5.326;2023-03-13T10:49:45;99354.06;;;17.55;50.57
61554;BME280;47425;51.976;5.326;2023-03-13T10:54:55;99322.28;;;17.55;50.24
61554;BME280;47425;51.976;5.326;2023-03-13T10:57:27;99328.44;;;17.55;50.43
61554;BME280;47425;51.976;5.326;2023-03-13T10:59:56;99341.31;;;17.60;50.12
61554;BME280;47425;51.976;5.326;2023-03-13T11:02:25;99321.97;;;17.59;49.99
61554;BME280;47425;51.976;5.326;2023-03-13T11:04:52;99328.47;;;17.67;49.92
61554;BME280;47425;51.976;5.326;2023-03-13T11:07:21;99325.59;;;17.70;49.67
61554;BME280;47425;51.976;5.326;2023-03-13T11:09:58;99327.66;;;17.66;49.62
61554;BME280;47425;51.976;5.326;2023-03-13T11:12:26;99320.38;;;17.57;50.09
61554;BME280;47425;51.976;5.326;2023-03-13T11:14:58;99317.84;;;17.55;50.05
61554;BME280;47425;51.976;5.326;2023-03-13T11:17:28;99301.97;;;17.55;49.76
61554;BME280;47425;51.976;5.326;2023-03-13T11:19:57;99303.63;;;17.56;50.06
61554;BME280;47425;51.976;5.326;2023-03-13T11:25:13;99296.38;;;17.71;49.35
61554;BME280;47425;51.976;5.326;2023-03-13T11:27:45;99303.00;;;17.77;49.42
61554;BME280;47425;51.976;5.326;2023-03-13T11:30:30;99285.56;;;17.86;49.08
61554;BME280;47425;51.976;5.326;2023-03-13T11:33:01;99299.56;;;17.88;48.94
61554;BME280;47425;51.976;5.326;2023-03-13T11:35:34;99298.09;;;17.84;48.93
61554;BME280;47425;51.976;5.326;2023-03-13T11:38:02;99313.03;;;17.85;48.84
61554;BME280;47425;51.976;5.326;2023-03-13T11:40:35;99305.44;;;17.80;49.19
61554;BME280;47425;51.976;5.326;2023-03-13T11:43:08;99297.72;;;17.77;49.07
61554;BME280;47425;51.976;5.326;2023-03-13T11:45:48;99286.75;;;17.82;48.89
61554;BME280;47425;51.976;5.326;2023-03-13T11:48:21;99290.75;;;17.87;49.03
61554;BME280;47425;51.976;5.326;2023-03-13T11:50:54;99289.22;;;17.85;48.94
61554;BME280;47425;51.976;5.326;2023-03-13T11:53:27;99282.72;;;17.89;48.86
61554;BME280;47425;51.976;5.326;2023-03-13T11:56:18;99279.44;;;17.85;48.91
61554;BME280;47425;51.976;5.326;2023-03-13T11:58:53;99276.41;;;17.78;49.14
61554;BME280;47425;51.976;5.326;2023-03-13T12:01:25;99282.53;;;17.79;49.01
61554;BME280;47425;51.976;5.326;2023-03-13T12:03:55;99281.47;;;17.82;48.93
61554;BME280;47425;51.976;5.326;2023-03-13T12:06:24;99277.72;;;17.73;49.13
61554;BME280;47425;51.976;5.326;2023-03-13T12:08:52;99271.81;;;17.69;48.50
61554;BME280;47425;51.976;5.326;2023-03-13T12:11:21;99286.19;;;17.78;48.55
61554;BME280;47425;51.976;5.326;2023-03-13T12:13:51;99285.44;;;17.87;48.17
61554;BME280;47425;51.976;5.326;2023-03-13T12:16:23;99260.66;;;17.88;48.62
61554;BME280;47425;51.976;5.326;2023-03-13T12:18:53;99253.63;;;18.00;48.10
61554;BME280;47425;51.976;5.326;2023-03-13T12:21:21;99257.25;;;18.10;47.98
61554;BME280;47425;51.976;5.326;2023-03-13T12:23:49;99249.81;;;18.16;47.90
61554;BME280;47425;51.976;5.326;2023-03-13T12:26:19;99244.59;;;18.14;47.88
61554;BME280;47425;51.976;5.326;2023-03-13T12:28:47;99244.13;;;18.09;47.70
61554;BME280;47425;51.976;5.326;2023-03-13T12:31:18;99250.75;;;18.15;47.63
61554;BME280;47425;51.976;5.326;2023-03-13T12:33:50;99232.09;;;18.16;47.02
61554;BME280;47425;51.976;5.326;2023-03-13T12:36:21;99244.38;;;18.17;47.14
61554;BME280;47425;51.976;5.326;2023-03-13T12:38:52;99235.69;;;18.15;47.07
61554;BME280;47425;51.976;5.326;2023-03-13T12:41:21;99247.53;;;18.22;47.10
61554;BME280;47425;51.976;5.326;2023-03-13T12:43:50;99232.69;;;18.20;46.98
61554;BME280;47425;51.976;5.326;2023-03-13T12:51:50;99228.22;;;18.32;46.76
61554;BME280;47425;51.976;5.326;2023-03-13T12:54:30;99231.72;;;18.32;46.88
61554;BME280;47425;51.976;5.326;2023-03-13T12:57:08;99223.53;;;18.35;46.71
61554;BME280;47425;51.976;5.326;2023-03-13T12:59:39;99221.47;;;18.27;46.89
61554;BME280;47425;51.976;5.326;2023-03-13T13:02:12;99213.31;;;18.31;46.82
61554;BME280;47425;51.976;5.326;2023-03-13T13:04:41;99206.19;;;18.31;46.71
61554;BME280;47425;51.976;5.326;2023-03-13T13:07:19;99194.88;;;18.29;46.70
61554;BME280;47425;51.976;5.326;2023-03-13T13:10:02;99198.63;;;18.26;46.92
61554;BME280;47425;51.976;5.326;2023-03-13T13:12:29;99181.03;;;18.25;46.81
61554;BME280;47425;51.976;5.326;2023-03-13T13:14:58;99200.88;;;18.31;46.83
61554;BME280;47425;51.976;5.326;2023-03-13T13:17:30;99203.53;;;18.31;46.56
61554;BME280;47425;51.976;5.326;2023-03-13T13:22:47;99192.59;;;18.24;46.76
61554;BME280;47425;51.976;5.326;2023-03-13T13:25:26;99191.03;;;18.33;46.83
61554;BME280;47425;51.976;5.326;2023-03-13T13:27:53;99177.78;;;18.33;46.57
61554;BME280;47425;51.976;5.326;2023-03-13T13:30:30;99178.34;;;18.37;46.40
61554;BME280;47425;51.976;5.326;2023-03-13T13:35:38;99190.78;;;18.36;46.42